CCA7924 ZBAD-ZSWZ
Flight info
| Callsign | CCA7924 |
|---|---|
| Flight time | N/A |
| Altitude | 35100 |
| Route | ELKUR W40 YQG W142 DALIM A593 PK W116 JTN G204 SHZ B221 REMIM |
| Aircraft | A321/M-SDE3FGHIRWY/LB1 |
Departure
| Time | 2026-04-26 09:51 |
|---|---|
| Airport | Beijing Daxing International Airport (ZBAD) |
Arrival
| Time | N/A |
|---|---|
| Airport | Wenzhou Longwan International Airport (ZSWZ) |
| Time | Latitude | Longitude | Altitude | Speed | Heading |
|---|---|---|---|---|---|
| 2026-04-26 09:07 | 39.51455 | 116.41633 | 85 ft | 0 kts | 232° |
| 2026-04-26 09:38 | 39.51467 | 116.41654 | 85 ft | 4 kts | 235° |
| 2026-04-26 09:38 | 39.51482 | 116.41683 | 90 ft | 4 kts | 239° |
| 2026-04-26 09:38 | 39.51495 | 116.41713 | 86 ft | 4 kts | 242° |
| 2026-04-26 09:39 | 39.51508 | 116.41744 | 85 ft | 4 kts | 241° |
| 2026-04-26 09:39 | 39.51517 | 116.41764 | 88 ft | 0 kts | 236° |
| 2026-04-26 09:43 | 39.51512 | 116.41754 | 89 ft | 2 kts | 233° |
| 2026-04-26 09:44 | 39.51498 | 116.41738 | 90 ft | 3 kts | 213° |
| 2026-04-26 09:44 | 39.51484 | 116.41743 | 86 ft | 3 kts | 165° |
| 2026-04-26 09:44 | 39.51464 | 116.41759 | 85 ft | 4 kts | 142° |
| 2026-04-26 09:44 | 39.51438 | 116.41785 | 86 ft | 6 kts | 142° |
| 2026-04-26 09:45 | 39.51403 | 116.41819 | 89 ft | 7 kts | 143° |
| 2026-04-26 09:45 | 39.51383 | 116.41875 | 85 ft | 8 kts | 88° |
| 2026-04-26 09:45 | 39.51391 | 116.41949 | 85 ft | 9 kts | 82° |
| 2026-04-26 09:45 | 39.51401 | 116.42035 | 88 ft | 10 kts | 83° |
| 2026-04-26 09:46 | 39.51410 | 116.42132 | 86 ft | 11 kts | 83° |
| 2026-04-26 09:46 | 39.51419 | 116.42239 | 85 ft | 13 kts | 83° |
| 2026-04-26 09:46 | 39.51431 | 116.42355 | 85 ft | 14 kts | 83° |
| 2026-04-26 09:46 | 39.51442 | 116.42479 | 89 ft | 15 kts | 83° |
| 2026-04-26 09:47 | 39.51455 | 116.42613 | 88 ft | 15 kts | 83° |
| 2026-04-26 09:47 | 39.51468 | 116.42755 | 87 ft | 16 kts | 83° |
| 2026-04-26 09:47 | 39.51482 | 116.42899 | 89 ft | 16 kts | 83° |
| 2026-04-26 09:47 | 39.51494 | 116.43022 | 86 ft | 8 kts | 82° |
| 2026-04-26 09:48 | 39.51510 | 116.43085 | 89 ft | 7 kts | 33° |
| 2026-04-26 09:48 | 39.51543 | 116.43112 | 93 ft | 4 kts | 23° |
| 2026-04-26 09:48 | 39.51558 | 116.43115 | 91 ft | 0 kts | 9° |
| 2026-04-26 09:49 | 39.51559 | 116.43115 | 92 ft | 1 kts | 9° |
| 2026-04-26 09:49 | 39.51569 | 116.43118 | 94 ft | 2 kts | 10° |
| 2026-04-26 09:49 | 39.51588 | 116.43122 | 93 ft | 3 kts | 11° |
| 2026-04-26 09:49 | 39.51608 | 116.43128 | 95 ft | 3 kts | 13° |
| 2026-04-26 09:50 | 39.51638 | 116.43138 | 97 ft | 6 kts | 15° |
| 2026-04-26 09:50 | 39.51660 | 116.43179 | 99 ft | 6 kts | 86° |
| 2026-04-26 09:50 | 39.51656 | 116.43214 | 100 ft | 0 kts | 103° |
| 2026-04-26 09:50 | 39.51650 | 116.43249 | 99 ft | 12 kts | 103° |
| 2026-04-26 09:51 | 39.51574 | 116.43666 | 101 ft | 84 kts | 103° |
| 2026-04-26 09:51 | 39.51392 | 116.44680 | 96 ft | 144 kts | 103° |
| 2026-04-26 09:51 | 39.51129 | 116.46067 | 388 ft | 163 kts | 105° |
| 2026-04-26 09:51 | 39.50862 | 116.47489 | 1062 ft | 163 kts | 107° |
| 2026-04-26 09:52 | 39.50599 | 116.48959 | 1481 ft | 177 kts | 104° |
| 2026-04-26 09:52 | 39.49980 | 116.52486 | 1915 ft | 222 kts | 105° |
| 2026-04-26 09:52 | 39.49613 | 116.54557 | 2153 ft | 248 kts | 105° |
| 2026-04-26 09:53 | 39.49218 | 116.56752 | 2915 ft | 253 kts | 103° |
| 2026-04-26 09:53 | 39.48818 | 116.58971 | 3773 ft | 254 kts | 102° |
| 2026-04-26 09:53 | 39.48413 | 116.61225 | 4529 ft | 259 kts | 101° |
| 2026-04-26 09:53 | 39.48001 | 116.63532 | 4858 ft | 264 kts | 101° |
| 2026-04-26 09:54 | 39.47615 | 116.65869 | 5388 ft | 266 kts | 98° |
| 2026-04-26 09:54 | 39.47263 | 116.68239 | 6137 ft | 272 kts | 97° |
| 2026-04-26 09:54 | 39.46915 | 116.70667 | 6812 ft | 277 kts | 97° |
| 2026-04-26 09:54 | 39.46560 | 116.73152 | 7461 ft | 284 kts | 98° |
| 2026-04-26 09:55 | 39.46012 | 116.75637 | 8108 ft | 293 kts | 115° |
| 2026-04-26 09:55 | 39.44778 | 116.77758 | 8768 ft | 300 kts | 139° |
| 2026-04-26 09:55 | 39.42979 | 116.79149 | 9440 ft | 305 kts | 159° |
| 2026-04-26 09:55 | 39.40989 | 116.80153 | 10104 ft | 309 kts | 160° |
| 2026-04-26 09:56 | 39.38913 | 116.81190 | 10324 ft | 332 kts | 160° |
| 2026-04-26 09:56 | 39.36684 | 116.82302 | 10458 ft | 355 kts | 160° |
| 2026-04-26 09:56 | 39.34329 | 116.83481 | 10799 ft | 368 kts | 160° |
| 2026-04-26 09:56 | 39.31923 | 116.84691 | 11400 ft | 373 kts | 160° |
| 2026-04-26 09:57 | 39.29529 | 116.85902 | 12051 ft | 376 kts | 160° |
| 2026-04-26 09:57 | 39.27083 | 116.87141 | 12723 ft | 379 kts | 160° |
| 2026-04-26 09:57 | 39.24618 | 116.88389 | 13400 ft | 382 kts | 160° |
| 2026-04-26 09:57 | 39.22132 | 116.89649 | 14034 ft | 386 kts | 160° |
| 2026-04-26 09:58 | 39.19626 | 116.90916 | 14633 ft | 389 kts | 160° |
| 2026-04-26 09:58 | 39.17095 | 116.92194 | 15209 ft | 393 kts | 160° |
| 2026-04-26 09:58 | 39.14540 | 116.93484 | 15796 ft | 396 kts | 160° |
| 2026-04-26 09:58 | 39.11967 | 116.94780 | 16406 ft | 399 kts | 160° |
| 2026-04-26 09:59 | 39.09374 | 116.96084 | 17007 ft | 402 kts | 161° |
| 2026-04-26 09:59 | 39.06760 | 116.97395 | 17591 ft | 405 kts | 161° |
| 2026-04-26 09:59 | 39.04122 | 116.98721 | 18167 ft | 409 kts | 161° |
| 2026-04-26 09:59 | 39.01456 | 117.00060 | 18673 ft | 413 kts | 161° |
| 2026-04-26 10:00 | 38.98773 | 117.01407 | 19167 ft | 416 kts | 161° |
| 2026-04-26 10:00 | 38.96062 | 117.02766 | 19665 ft | 420 kts | 161° |
| 2026-04-26 10:00 | 38.93328 | 117.04136 | 20171 ft | 424 kts | 161° |
| 2026-04-26 10:00 | 38.90558 | 117.05467 | 20649 ft | 426 kts | 167° |
| 2026-04-26 10:01 | 38.87657 | 117.06095 | 21117 ft | 422 kts | 182° |
| 2026-04-26 10:01 | 38.84762 | 117.05742 | 21587 ft | 417 kts | 198° |
| 2026-04-26 10:01 | 38.82074 | 117.04453 | 22054 ft | 410 kts | 213° |
| 2026-04-26 10:01 | 38.79795 | 117.02398 | 22508 ft | 404 kts | 227° |
| 2026-04-26 10:02 | 38.77983 | 116.99696 | 22974 ft | 398 kts | 241° |
| 2026-04-26 10:02 | 38.76633 | 116.96616 | 23462 ft | 397 kts | 246° |
| 2026-04-26 10:02 | 38.75330 | 116.93485 | 23875 ft | 399 kts | 246° |
| 2026-04-26 10:02 | 38.74023 | 116.90354 | 24282 ft | 399 kts | 246° |
| 2026-04-26 10:03 | 38.72710 | 116.87223 | 24744 ft | 399 kts | 246° |
| 2026-04-26 10:03 | 38.71391 | 116.84089 | 25150 ft | 400 kts | 247° |
| 2026-04-26 10:03 | 38.70067 | 116.80947 | 25555 ft | 402 kts | 247° |
| 2026-04-26 10:03 | 38.68736 | 116.77797 | 25946 ft | 403 kts | 247° |
| 2026-04-26 10:04 | 38.67400 | 116.74640 | 26345 ft | 405 kts | 247° |
| 2026-04-26 10:04 | 38.65795 | 116.71637 | 26715 ft | 415 kts | 236° |
| 2026-04-26 10:04 | 38.63669 | 116.69064 | 27075 ft | 428 kts | 224° |
| 2026-04-26 10:04 | 38.61072 | 116.67085 | 27425 ft | 443 kts | 211° |
| 2026-04-26 10:05 | 38.58086 | 116.65870 | 27733 ft | 460 kts | 198° |
| 2026-04-26 10:05 | 38.54866 | 116.65408 | 28056 ft | 469 kts | 193° |
| 2026-04-26 10:05 | 38.51607 | 116.65049 | 28366 ft | 471 kts | 193° |
| 2026-04-26 10:05 | 38.48333 | 116.64686 | 28682 ft | 473 kts | 193° |
| 2026-04-26 10:06 | 38.45042 | 116.64317 | 28997 ft | 476 kts | 193° |
| 2026-04-26 10:06 | 38.41739 | 116.63941 | 29313 ft | 478 kts | 194° |
| 2026-04-26 10:06 | 38.38412 | 116.63560 | 29575 ft | 481 kts | 194° |
| 2026-04-26 10:06 | 38.35075 | 116.63179 | 29897 ft | 482 kts | 194° |
| 2026-04-26 10:07 | 38.31717 | 116.62890 | 30269 ft | 488 kts | 189° |
| 2026-04-26 10:07 | 38.28296 | 116.63148 | 30638 ft | 498 kts | 181° |
| 2026-04-26 10:07 | 38.24871 | 116.64058 | 31000 ft | 508 kts | 172° |
| 2026-04-26 10:07 | 38.21478 | 116.65334 | 31357 ft | 508 kts | 172° |
| 2026-04-26 10:08 | 38.18090 | 116.66604 | 31684 ft | 507 kts | 172° |
| 2026-04-26 10:08 | 38.14703 | 116.67864 | 31988 ft | 508 kts | 173° |
| 2026-04-26 10:08 | 38.11304 | 116.69122 | 32313 ft | 508 kts | 173° |
| 2026-04-26 10:08 | 38.07916 | 116.70385 | 32658 ft | 508 kts | 173° |
| 2026-04-26 10:09 | 38.04576 | 116.71650 | 33008 ft | 507 kts | 173° |
| 2026-04-26 10:09 | 38.02294 | 116.72523 | 33248 ft | 507 kts | 173° |
| 2026-04-26 10:09 | 37.97826 | 116.74240 | 33714 ft | 506 kts | 173° |
| 2026-04-26 10:09 | 37.94461 | 116.75534 | 34044 ft | 505 kts | 173° |
| 2026-04-26 10:10 | 37.91104 | 116.76815 | 34337 ft | 504 kts | 173° |
| 2026-04-26 10:10 | 37.87747 | 116.78087 | 34622 ft | 503 kts | 173° |
| 2026-04-26 10:10 | 37.84395 | 116.79355 | 34893 ft | 503 kts | 173° |
| 2026-04-26 10:10 | 37.81042 | 116.80624 | 34992 ft | 502 kts | 173° |
| 2026-04-26 10:11 | 37.74371 | 116.83149 | 35012 ft | 499 kts | 173° |
| 2026-04-26 10:11 | 37.67718 | 116.85658 | 35008 ft | 499 kts | 173° |
| 2026-04-26 10:12 | 37.61067 | 116.88161 | 34995 ft | 499 kts | 173° |
| 2026-04-26 10:12 | 37.54413 | 116.90673 | 34996 ft | 499 kts | 173° |
| 2026-04-26 10:13 | 37.47756 | 116.93171 | 34954 ft | 499 kts | 173° |
| 2026-04-26 10:13 | 37.41101 | 116.95665 | 34973 ft | 499 kts | 173° |
| 2026-04-26 10:14 | 37.34495 | 116.98135 | 34987 ft | 499 kts | 173° |
| 2026-04-26 10:14 | 37.27847 | 117.00653 | 34986 ft | 501 kts | 171° |
| 2026-04-26 10:15 | 37.21262 | 117.03634 | 34963 ft | 505 kts | 167° |
| 2026-04-26 10:15 | 37.14719 | 117.06881 | 34970 ft | 506 kts | 167° |
| 2026-04-26 10:16 | 37.08160 | 117.10058 | 34969 ft | 505 kts | 168° |
| 2026-04-26 10:16 | 37.02693 | 117.12601 | 34970 ft | 504 kts | 168° |
| 2026-04-26 10:17 | 36.94996 | 117.16122 | 34947 ft | 504 kts | 168° |
| 2026-04-26 10:17 | 36.89523 | 117.18649 | 34949 ft | 505 kts | 167° |
| 2026-04-26 10:18 | 36.81775 | 117.21336 | 34957 ft | 487 kts | 183° |
| 2026-04-26 10:18 | 36.75130 | 117.21548 | 34914 ft | 475 kts | 191° |
| 2026-04-26 10:19 | 36.69584 | 117.21489 | 34964 ft | 476 kts | 190° |
| 2026-04-26 10:19 | 36.62959 | 117.21449 | 34981 ft | 476 kts | 190° |
| 2026-04-26 10:20 | 36.56379 | 117.21409 | 34985 ft | 476 kts | 190° |
| 2026-04-26 10:20 | 36.49759 | 117.21364 | 34967 ft | 476 kts | 190° |
| 2026-04-26 10:21 | 36.43132 | 117.21438 | 34972 ft | 483 kts | 184° |
| 2026-04-26 10:21 | 36.36456 | 117.23262 | 34978 ft | 498 kts | 171° |
| 2026-04-26 10:22 | 36.29819 | 117.25754 | 34944 ft | 498 kts | 171° |
| 2026-04-26 10:22 | 36.23178 | 117.28235 | 34956 ft | 499 kts | 171° |
| 2026-04-26 10:23 | 36.16533 | 117.30700 | 34960 ft | 499 kts | 171° |
| 2026-04-26 10:23 | 36.09878 | 117.33152 | 34964 ft | 499 kts | 171° |
| 2026-04-26 10:24 | 36.03219 | 117.35604 | 34947 ft | 499 kts | 171° |
| 2026-04-26 10:24 | 35.96556 | 117.38065 | 34961 ft | 500 kts | 171° |
| 2026-04-26 10:25 | 35.89895 | 117.40563 | 34966 ft | 500 kts | 170° |
| 2026-04-26 10:25 | 35.83280 | 117.43051 | 34973 ft | 501 kts | 170° |
| 2026-04-26 10:26 | 35.76615 | 117.45544 | 34959 ft | 500 kts | 170° |
| 2026-04-26 10:26 | 35.69952 | 117.48017 | 34976 ft | 500 kts | 171° |
| 2026-04-26 10:27 | 35.63295 | 117.50488 | 34987 ft | 500 kts | 170° |
| 2026-04-26 10:27 | 35.56640 | 117.52970 | 34993 ft | 500 kts | 170° |
| 2026-04-26 10:28 | 35.49988 | 117.55442 | 34996 ft | 499 kts | 171° |
| 2026-04-26 10:28 | 35.43336 | 117.57895 | 34995 ft | 499 kts | 171° |
| 2026-04-26 10:29 | 35.36685 | 117.60346 | 34995 ft | 499 kts | 171° |
| 2026-04-26 10:29 | 35.30039 | 117.62801 | 34979 ft | 499 kts | 170° |
| 2026-04-26 10:30 | 35.23390 | 117.65249 | 34985 ft | 499 kts | 170° |
| 2026-04-26 10:30 | 35.16738 | 117.67691 | 34992 ft | 499 kts | 170° |
| 2026-04-26 10:31 | 35.10083 | 117.70126 | 34996 ft | 499 kts | 170° |
| 2026-04-26 10:31 | 35.03478 | 117.72557 | 34982 ft | 499 kts | 170° |
| 2026-04-26 10:32 | 34.96822 | 117.75002 | 34995 ft | 499 kts | 170° |
| 2026-04-26 10:32 | 34.90168 | 117.77428 | 34996 ft | 499 kts | 170° |
| 2026-04-26 10:33 | 34.83515 | 117.79852 | 34999 ft | 499 kts | 170° |
| 2026-04-26 10:33 | 34.76867 | 117.82276 | 34972 ft | 499 kts | 170° |
| 2026-04-26 10:34 | 34.70210 | 117.84680 | 34983 ft | 499 kts | 170° |
| 2026-04-26 10:34 | 34.63548 | 117.87063 | 34990 ft | 499 kts | 171° |
| 2026-04-26 10:35 | 34.56887 | 117.89442 | 34972 ft | 499 kts | 171° |
| 2026-04-26 10:35 | 34.50231 | 117.91828 | 34986 ft | 499 kts | 171° |
| 2026-04-26 10:36 | 34.43567 | 117.94215 | 35002 ft | 499 kts | 171° |
| 2026-04-26 10:36 | 34.36949 | 117.96577 | 35009 ft | 499 kts | 171° |
| 2026-04-26 10:37 | 34.30306 | 117.99033 | 34967 ft | 503 kts | 165° |
| 2026-04-26 10:37 | 34.24083 | 118.03096 | 34985 ft | 516 kts | 148° |
| 2026-04-26 10:38 | 34.18270 | 118.08199 | 35001 ft | 517 kts | 148° |
| 2026-04-26 10:38 | 34.12440 | 118.13274 | 35005 ft | 517 kts | 148° |
| 2026-04-26 10:39 | 34.06607 | 118.18332 | 35008 ft | 517 kts | 148° |
| 2026-04-26 10:39 | 34.00779 | 118.23408 | 34984 ft | 517 kts | 148° |
| 2026-04-26 10:40 | 33.94953 | 118.28495 | 34997 ft | 517 kts | 148° |
| 2026-04-26 10:40 | 33.89136 | 118.33607 | 35006 ft | 518 kts | 148° |
| 2026-04-26 10:41 | 33.83355 | 118.38681 | 35019 ft | 518 kts | 148° |
| 2026-04-26 10:41 | 33.77523 | 118.43778 | 35023 ft | 518 kts | 148° |
| 2026-04-26 10:42 | 33.71686 | 118.48863 | 35007 ft | 518 kts | 148° |
| 2026-04-26 10:42 | 33.65855 | 118.53944 | 35009 ft | 518 kts | 148° |
| 2026-04-26 10:43 | 33.60020 | 118.59022 | 35018 ft | 518 kts | 148° |
| 2026-04-26 10:43 | 33.54176 | 118.64095 | 35023 ft | 518 kts | 148° |
| 2026-04-26 10:44 | 33.48333 | 118.69158 | 35025 ft | 518 kts | 148° |
| 2026-04-26 10:44 | 33.42496 | 118.74211 | 35008 ft | 518 kts | 148° |
| 2026-04-26 10:45 | 33.36664 | 118.79268 | 35021 ft | 518 kts | 148° |
| 2026-04-26 10:45 | 33.30829 | 118.84324 | 35034 ft | 518 kts | 148° |
| 2026-04-26 10:46 | 33.24999 | 118.89393 | 35027 ft | 518 kts | 148° |
| 2026-04-26 10:46 | 33.19186 | 118.94479 | 35032 ft | 518 kts | 148° |
| 2026-04-26 10:47 | 33.13366 | 118.99545 | 35017 ft | 518 kts | 148° |
| 2026-04-26 10:47 | 33.07525 | 119.04577 | 35032 ft | 518 kts | 148° |
| 2026-04-26 10:48 | 33.01713 | 119.09576 | 35036 ft | 519 kts | 148° |
| 2026-04-26 10:48 | 32.95864 | 119.14607 | 35041 ft | 518 kts | 148° |
| 2026-04-26 10:49 | 32.90030 | 119.19652 | 35043 ft | 518 kts | 148° |
| 2026-04-26 10:49 | 32.84218 | 119.24734 | 35043 ft | 519 kts | 148° |
| 2026-04-26 10:50 | 32.79347 | 119.28989 | 35045 ft | 518 kts | 148° |
| 2026-04-26 10:50 | 32.72595 | 119.34875 | 35050 ft | 518 kts | 148° |
| 2026-04-26 10:51 | 32.63869 | 119.42440 | 35052 ft | 518 kts | 148° |
| 2026-04-26 10:52 | 32.58049 | 119.47478 | 35047 ft | 518 kts | 148° |
| 2026-04-26 10:52 | 32.52229 | 119.52514 | 34990 ft | 518 kts | 148° |
| 2026-04-26 10:53 | 32.46392 | 119.57547 | 35005 ft | 520 kts | 148° |
| 2026-04-26 10:53 | 32.40528 | 119.62580 | 35013 ft | 521 kts | 148° |
| 2026-04-26 10:54 | 32.31695 | 119.70112 | 35028 ft | 522 kts | 148° |
| 2026-04-26 10:54 | 32.25829 | 119.75097 | 35037 ft | 523 kts | 148° |
| 2026-04-26 10:55 | 32.19924 | 119.80119 | 35030 ft | 523 kts | 148° |
| 2026-04-26 10:55 | 32.14983 | 119.84353 | 35050 ft | 524 kts | 148° |
| 2026-04-26 10:56 | 32.08121 | 119.90216 | 35055 ft | 524 kts | 148° |
| 2026-04-26 10:56 | 32.02210 | 119.95246 | 35057 ft | 524 kts | 148° |
| 2026-04-26 10:57 | 31.96316 | 120.00306 | 35058 ft | 524 kts | 148° |
| 2026-04-26 10:57 | 31.90432 | 120.05387 | 35040 ft | 524 kts | 147° |
| 2026-04-26 10:58 | 31.84539 | 120.10449 | 35052 ft | 524 kts | 148° |
| 2026-04-26 10:58 | 31.78663 | 120.15536 | 35059 ft | 526 kts | 143° |
| 2026-04-26 10:59 | 31.73681 | 120.21857 | 35056 ft | 530 kts | 124° |
| 2026-04-26 10:59 | 31.70227 | 120.29483 | 35059 ft | 529 kts | 113° |
| 2026-04-26 11:00 | 31.67137 | 120.37269 | 35055 ft | 530 kts | 114° |
| 2026-04-26 11:00 | 31.63995 | 120.45103 | 35060 ft | 530 kts | 114° |
| 2026-04-26 11:01 | 31.60846 | 120.52925 | 35067 ft | 530 kts | 114° |
| 2026-04-26 11:01 | 31.57694 | 120.60745 | 35068 ft | 530 kts | 114° |
| 2026-04-26 11:02 | 31.54544 | 120.68565 | 35073 ft | 530 kts | 114° |
| 2026-04-26 11:02 | 31.51393 | 120.76378 | 35076 ft | 530 kts | 114° |
| 2026-04-26 11:03 | 31.48254 | 120.84140 | 35042 ft | 518 kts | 114° |
| 2026-04-26 11:03 | 31.45180 | 120.91716 | 35057 ft | 520 kts | 114° |
| 2026-04-26 11:04 | 31.42142 | 120.99202 | 35060 ft | 525 kts | 114° |
| 2026-04-26 11:04 | 31.39022 | 121.06863 | 35062 ft | 525 kts | 114° |
| 2026-04-26 11:05 | 31.35894 | 121.14524 | 35070 ft | 525 kts | 114° |
| 2026-04-26 11:05 | 31.32649 | 121.22173 | 35068 ft | 526 kts | 121° |
| 2026-04-26 11:06 | 31.30499 | 121.25620 | 35085 ft | 525 kts | 133° |
| 2026-04-26 11:06 | 31.28770 | 121.27669 | 35085 ft | 522 kts | 141° |
| 2026-04-26 11:06 | 31.24881 | 121.30894 | 35083 ft | 515 kts | 156° |
| 2026-04-26 11:06 | 31.21637 | 121.32579 | 35076 ft | 507 kts | 167° |
| 2026-04-26 11:07 | 31.18255 | 121.33598 | 35074 ft | 497 kts | 178° |
| 2026-04-26 11:07 | 31.14895 | 121.33986 | 35072 ft | 490 kts | 184° |
| 2026-04-26 11:07 | 31.08199 | 121.33585 | 35050 ft | 478 kts | 196° |
| 2026-04-26 11:08 | 31.01581 | 121.32633 | 35051 ft | 480 kts | 195° |
| 2026-04-26 11:08 | 30.94938 | 121.31690 | 35059 ft | 482 kts | 195° |
| 2026-04-26 11:09 | 30.88277 | 121.30753 | 35065 ft | 482 kts | 195° |
| 2026-04-26 11:09 | 30.81656 | 121.29817 | 35058 ft | 482 kts | 195° |
| 2026-04-26 11:10 | 30.74992 | 121.28872 | 35070 ft | 483 kts | 195° |
| 2026-04-26 11:10 | 30.68324 | 121.27925 | 35073 ft | 483 kts | 195° |
| 2026-04-26 11:11 | 30.61656 | 121.26990 | 35042 ft | 483 kts | 195° |
| 2026-04-26 11:11 | 30.54980 | 121.26060 | 35065 ft | 483 kts | 195° |
| 2026-04-26 11:12 | 30.48301 | 121.25124 | 35072 ft | 484 kts | 195° |
| 2026-04-26 11:12 | 30.41616 | 121.24199 | 35042 ft | 484 kts | 195° |
| 2026-04-26 11:13 | 30.34958 | 121.23341 | 35047 ft | 485 kts | 194° |
| 2026-04-26 11:13 | 30.28270 | 121.22399 | 35055 ft | 479 kts | 200° |
| 2026-04-26 11:14 | 30.22117 | 121.19969 | 35065 ft | 458 kts | 217° |
| 2026-04-26 11:14 | 30.17444 | 121.17049 | 35046 ft | 456 kts | 218° |
| 2026-04-26 11:15 | 30.10944 | 121.13008 | 35058 ft | 457 kts | 218° |
| 2026-04-26 11:15 | 30.06280 | 121.10127 | 35072 ft | 457 kts | 218° |
| 2026-04-26 11:16 | 30.00665 | 121.06663 | 35071 ft | 457 kts | 218° |
| 2026-04-26 11:16 | 29.95060 | 121.03202 | 35075 ft | 457 kts | 218° |
| 2026-04-26 11:17 | 29.89453 | 120.99744 | 35078 ft | 457 kts | 218° |
| 2026-04-26 11:17 | 29.83846 | 120.96291 | 35079 ft | 457 kts | 218° |
| 2026-04-26 11:18 | 29.78236 | 120.92845 | 35066 ft | 457 kts | 218° |
| 2026-04-26 11:18 | 29.72631 | 120.89406 | 35049 ft | 457 kts | 217° |
| 2026-04-26 11:19 | 29.67059 | 120.85990 | 35065 ft | 457 kts | 217° |
| 2026-04-26 11:19 | 29.62329 | 120.83162 | 35069 ft | 462 kts | 212° |